KPOC Airport (Brackett Field) Information

FAA: POC - ICAO: KPOC

KPOC Airport Location

State California
County Los Angeles
City La Verne
KPOC Airport is 1 miles southwest of La Verne, CA.
Latitude 34-05-30.0000N
Longitude 117-46-54.4000W
Elevation 1,013ft

KPOC Airport METARs

METAR KPOC 302147Z 26010KT 10SM CLR 28/16 A2984
Altimeter 29.84"
Temperature 28.0°C (82.4°F)
Wind 260° at 10KT
Clouds Skies are clear.
Visibility 10.0mi
Time observed: 2022-09-30T21:47:00Z

KPOC Airport Details

Status Operational
Activation January 1942
Ownership Public
Usage Public
Chart LOS ANGELES
ATC on-site Yes
Beacon schedule sunset-sunrise
Beacon color clear green

KPOC Airport Contacts

Owner COUNTY OF LOS ANGELES
Owner address PO BOX 1460, ALHAMBRA, CA 91803-1331
Owner phone 626-300-4602
Manager DAVE GUERRERO C/O SCE AIR OPS
Manager address 7000 MERRILL AVE. BLDG A-290 BOX 50, CHINO, CA 91710
Manager phone 909-974-4641

KPOC Airport (Brackett Field) Radio Frequencies

KPOC (Airport) Radio Frequencies

UNICOM 122.95
Common traffic advisory frequency (CTAF) 118.2